Time,TemperatureF,DewpointF,PressureIn,WindDirection,WindDirectionDegrees,WindSpeedMPH,WindSpeedGustMPH,Humidity,HourlyPrecipIn,Conditions,Clouds,dailyrainin,SoftwareType,DateUTC
2013-03-06 04:30:00,36.0,35.0,-100.00,NE,45,9.0,18.0,95,-99.99,,,-99.99,,2013-03-06 09:30:00,
2013-03-06 05:11:00,36.0,35.0,-100.00,NE,45,9.0,18.0,95,-99.99,,,-99.99,,2013-03-06 10:11:00,
2013-03-06 05:22:00,36.0,35.0,-100.00,NE,45,9.0,18.0,95,-99.99,,,-99.99,,2013-03-06 10:22:00,
2013-03-06 06:11:00,38.0,35.0,-100.00,NE,50,17.0,30.0,91,-99.99,,,-99.99,,2013-03-06 11:11:00,
2013-03-06 08:32:00,39.0,30.0,-100.00,ENE,70,17.0,31.0,69,-99.99,,,-99.99,,2013-03-06 13:32:00,
2013-03-06 14:32:00,39.0,30.0,-100.00,NE,55,22.0,37.0,71,-99.99,,,-99.99,,2013-03-06 19:32:00,
2013-03-06 15:33:00,39.0,28.0,-100.00,ENE,60,15.0,35.0,64,-99.99,,,-99.99,,2013-03-06 20:33:00,
2013-03-06 17:42:00,37.0,30.0,-100.00,NE,50,17.0,32.0,73,-99.99,,,-99.99,,2013-03-06 22:42:00,
2013-03-06 17:52:00,37.0,30.0,-100.00,NE,50,17.0,32.0,73,-99.99,,,-99.99,,2013-03-06 22:52:00,
2013-03-06 18:02:00,37.0,29.0,-100.00,NE,55,15.0,29.0,73,-99.99,,,-99.99,,2013-03-06 23:02:00,
2013-03-06 18:11:00,37.0,29.0,-100.00,NE,55,17.0,29.0,72,-99.99,,,-99.99,,2013-03-06 23:11:00,
2013-03-06 18:22:00,37.0,29.0,-100.00,ENE,70,14.0,27.0,73,-99.99,,,-99.99,,2013-03-06 23:22:00,
2013-03-06 18:32:00,37.0,30.0,-100.00,NE,50,21.0,39.0,76,-99.99,,,-99.99,,2013-03-06 23:32:00,
2013-03-06 18:42:00,37.0,30.0,-100.00,NE,45,18.0,39.0,76,-99.99,,,-99.99,,2013-03-06 23:42:00,
2013-03-06 18:52:00,37.0,30.0,-100.00,ENE,60,18.0,35.0,75,-99.99,,,-99.99,,2013-03-06 23:52:00,
2013-03-06 19:02:00,37.0,30.0,-100.00,NE,55,18.0,29.0,76,-99.99,,,-99.99,,2013-03-07 00:02:00,
2013-03-06 19:11:00,37.0,31.0,-100.00,NE,50,15.0,31.0,79,-99.99,,,-99.99,,2013-03-07 00:11:00,
2013-03-06 19:22:00,36.0,31.0,-100.00,ENE,65,17.0,29.0,81,-99.99,,,-99.99,,2013-03-07 00:22:00,
2013-03-06 19:42:00,36.0,32.0,-100.00,NE,40,16.0,25.0,86,-99.99,,,-99.99,,2013-03-07 00:42:00,
2013-03-06 19:52:00,35.0,33.0,-100.00,NE,40,14.0,27.0,90,-99.99,,,-99.99,,2013-03-07 00:52:00,
2013-03-06 20:02:00,35.0,33.0,-100.00,NE,50,18.0,28.0,91,-99.99,,,-99.99,,2013-03-07 01:02:00,
2013-03-06 20:12:00,35.0,33.0,-100.00,NE,55,15.0,25.0,92,-99.99,,,-99.99,,2013-03-07 01:12:00,
2013-03-06 20:22:00,34.0,32.0,-100.00,NE,50,16.0,28.0,93,-99.99,,,-99.99,,2013-03-07 01:22:00,
2013-03-06 20:32:00,33.0,32.0,-100.00,NE,45,18.0,29.0,94,-99.99,,,-99.99,,2013-03-07 01:32:00,
2013-03-06 20:42:00,34.0,32.0,-100.00,NE,50,14.0,29.0,95,-99.99,,,-99.99,,2013-03-07 01:42:00,
2013-03-06 20:50:00,33.0,32.0,-100.00,NE,55,14.0,28.0,97,-99.99,,,-99.99,,2013-03-07 01:50:00,
2013-03-06 20:52:00,34.0,33.0,-100.00,NE,35,16.0,27.0,95,-99.99,,,-99.99,,2013-03-07 01:52:00,
2013-03-06 21:01:00,34.0,33.0,-100.00,ENE,60,16.0,27.0,96,-99.99,,,-99.99,,2013-03-07 02:01:00,
2013-03-06 21:11:00,33.0,32.0,-100.00,NE,50,13.0,27.0,96,-99.99,,,-99.99,,2013-03-07 02:11:00,
2013-03-06 21:21:00,33.0,32.0,-100.00,NE,50,15.0,23.0,97,-99.99,,,-99.99,,2013-03-07 02:21:00,
2013-03-06 21:32:00,33.0,32.0,-100.00,NE,55,14.0,28.0,97,-99.99,,,-99.99,,2013-03-07 02:32:00,
2013-03-06 21:42:00,33.0,32.0,-100.00,NE,55,14.0,28.0,97,-99.99,,,-99.99,,2013-03-07 02:42:00,
2013-03-06 22:02:00,33.0,32.0,-100.00,NE,45,12.0,23.0,98,-99.99,,,-99.99,,2013-03-07 03:02:00,
2013-03-06 22:12:00,33.0,32.0,-100.00,NE,45,12.0,23.0,98,-99.99,,,-99.99,,2013-03-07 03:12:00,
2013-03-06 22:22:00,33.0,33.0,-100.00,NE,45,14.0,29.0,99,-99.99,,,-99.99,,2013-03-07 03:22:00,
2013-03-06 22:30:00,33.0,32.0,-100.00,NE,50,15.0,28.0,97,-99.99,,,-99.99,,2013-03-07 03:30:00,
2013-03-06 22:32:00,33.0,32.0,-100.00,NE,45,14.0,28.0,98,-99.99,,,-99.99,,2013-03-07 03:32:00,
2013-03-06 22:42:00,33.0,32.0,-100.00,NE,45,15.0,27.0,97,-99.99,,,-99.99,,2013-03-07 03:42:00,
2013-03-06 22:52:00,33.0,32.0,-100.00,NE,45,16.0,24.0,98,-99.99,,,-99.99,,2013-03-07 03:52:00,
2013-03-06 23:02:00,33.0,32.0,-100.00,NE,45,16.0,24.0,98,-99.99,,,-99.99,,2013-03-07 04:02:00,
2013-03-06 23:12:00,33.0,32.0,-100.00,NE,50,15.0,28.0,97,-99.99,,,-99.99,,2013-03-07 04:12:00,
2013-03-06 23:22:00,33.0,32.0,-100.00,NE,50,15.0,28.0,97,-99.99,,,-99.99,,2013-03-07 04:22:00,